createdAt,value
2023-07-26T00:01:50.240Z,15.30
2023-07-26T00:04:16.873Z,15.30
2023-07-26T00:06:43.539Z,15.30
2023-07-26T00:09:10.278Z,15.26
2023-07-26T00:11:37.784Z,15.30
2023-07-26T00:14:06.506Z,15.30
2023-07-26T00:16:34.789Z,15.30
2023-07-26T00:19:02.315Z,15.28
2023-07-26T00:21:29.590Z,15.20
2023-07-26T00:23:56.325Z,15.20
2023-07-26T00:26:23.055Z,15.10
2023-07-26T00:28:49.676Z,15.10
2023-07-26T00:31:16.351Z,15.12
2023-07-26T00:33:43.030Z,15.10
2023-07-26T00:36:10.566Z,15.10
2023-07-26T00:38:37.393Z,15.10
2023-07-26T00:41:04.132Z,15.20
2023-07-26T00:43:30.896Z,15.20
2023-07-26T00:45:57.749Z,15.20
2023-07-26T00:48:25.834Z,15.20
2023-07-26T00:50:53.010Z,15.20
2023-07-26T00:53:20.259Z,15.20
2023-07-26T00:55:47.052Z,15.20
2023-07-26T00:58:15.629Z,15.20
2023-07-26T01:00:45.988Z,15.20
2023-07-26T01:03:13.967Z,15.20
2023-07-26T01:06:28.943Z,15.20
2023-07-26T01:09:10.771Z,15.20
2023-07-26T01:11:50.018Z,15.12
2023-07-26T01:14:34.468Z,15.20
2023-07-26T01:17:01.176Z,15.20
2023-07-26T01:19:27.860Z,15.20
2023-07-26T01:21:54.533Z,15.20
2023-07-26T01:24:21.276Z,15.20
2023-07-26T01:26:47.978Z,15.20
2023-07-26T01:29:14.730Z,15.20
2023-07-26T01:31:42.060Z,15.20
2023-07-26T01:34:10.386Z,15.20
2023-07-26T01:36:38.159Z,15.10
2023-07-26T01:39:08.612Z,15.10
2023-07-26T01:41:36.600Z,15.00
2023-07-26T01:44:05.040Z,15.00
2023-07-26T01:46:31.693Z,14.90
2023-07-26T01:48:58.646Z,14.96
2023-07-26T01:51:25.428Z,14.96
2023-07-26T01:53:52.075Z,15.00
2023-07-26T01:56:18.744Z,15.00
2023-07-26T01:58:45.399Z,15.10
2023-07-26T02:01:12.138Z,15.10
2023-07-26T02:03:38.810Z,15.08
2023-07-26T02:06:05.542Z,15.00
2023-07-26T02:08:32.201Z,15.00
2023-07-26T02:10:59.329Z,15.00
2023-07-26T02:13:26.018Z,15.00
2023-07-26T02:15:52.653Z,15.10
2023-07-26T02:18:19.450Z,15.00
2023-07-26T02:20:46.112Z,15.00
2023-07-26T02:23:12.776Z,14.90
2023-07-26T02:25:39.410Z,14.90
2023-07-26T02:28:06.128Z,15.00
2023-07-26T02:30:32.756Z,15.00
2023-07-26T02:32:59.479Z,14.90
2023-07-26T02:35:26.184Z,14.90
2023-07-26T02:37:52.830Z,14.84
2023-07-26T02:40:19.447Z,14.82
2023-07-26T02:42:46.066Z,14.80
2023-07-26T02:45:12.634Z,14.90
2023-07-26T02:47:39.269Z,14.80
2023-07-26T02:50:06.384Z,14.80
2023-07-26T02:52:34.395Z,14.80
2023-07-26T02:55:02.250Z,14.80
2023-07-26T02:57:28.916Z,14.78
2023-07-26T02:59:55.647Z,14.80
2023-07-26T03:02:23.804Z,14.84
2023-07-26T03:04:50.832Z,14.90
2023-07-26T03:07:17.444Z,14.90
2023-07-26T03:09:44.134Z,14.90
2023-07-26T03:12:10.823Z,14.90
2023-07-26T03:14:42.056Z,15.00
2023-07-26T03:19:41.701Z,15.00
2023-07-26T03:22:08.467Z,15.00
2023-07-26T03:24:35.182Z,15.00
2023-07-26T03:27:02.146Z,15.04
2023-07-26T03:29:28.822Z,15.10
2023-07-26T03:31:55.535Z,15.00
2023-07-26T03:34:22.218Z,14.92
2023-07-26T03:36:48.922Z,15.00
2023-07-26T03:39:15.644Z,14.80
2023-07-26T03:41:42.315Z,14.80
2023-07-26T03:44:08.977Z,14.80
2023-07-26T03:46:35.771Z,14.80
2023-07-26T03:49:04.976Z,14.74
2023-07-26T03:51:31.671Z,14.70
2023-07-26T03:53:58.265Z,14.80
2023-07-26T03:56:25.062Z,14.78
2023-07-26T03:58:51.784Z,14.70
2023-07-26T04:01:18.485Z,14.66
2023-07-26T04:03:45.322Z,14.60
2023-07-26T04:06:13.838Z,14.52
2023-07-26T04:08:43.563Z,14.50
2023-07-26T04:11:12.941Z,14.48
2023-07-26T04:13:39.537Z,14.40
2023-07-26T04:16:18.457Z,14.40
2023-07-26T04:18:46.126Z,14.40
2023-07-26T04:21:18.709Z,14.50
2023-07-26T04:23:47.294Z,14.50
2023-07-26T04:26:14.349Z,14.60
2023-07-26T04:28:41.080Z,14.60
2023-07-26T04:31:07.828Z,14.70
2023-07-26T04:33:34.598Z,14.70
2023-07-26T04:36:01.469Z,14.80
2023-07-26T04:38:28.397Z,14.80
2023-07-26T04:40:55.097Z,14.90
2023-07-26T04:43:21.896Z,15.04
2023-07-26T04:45:51.003Z,15.20
2023-07-26T04:48:19.570Z,15.20
2023-07-26T04:50:48.603Z,15.30
2023-07-26T04:53:16.301Z,15.40
2023-07-26T04:55:49.436Z,15.50
2023-07-26T04:58:16.621Z,15.68
2023-07-26T05:00:43.474Z,15.80
2023-07-26T05:03:11.169Z,15.80
2023-07-26T05:05:38.602Z,15.80
2023-07-26T05:08:07.547Z,15.74
2023-07-26T05:10:35.187Z,15.70
2023-07-26T05:13:02.027Z,15.70
2023-07-26T05:15:28.845Z,15.60
2023-07-26T05:17:55.795Z,15.62
2023-07-26T05:20:22.407Z,15.50
2023-07-26T05:22:49.069Z,15.50
2023-07-26T05:25:15.792Z,15.40
2023-07-26T05:27:42.491Z,15.50
2023-07-26T05:30:09.633Z,15.60
2023-07-26T05:32:36.413Z,15.70
2023-07-26T05:35:04.180Z,15.80
2023-07-26T05:37:35.716Z,15.80
2023-07-26T05:40:04.236Z,15.80
2023-07-26T05:42:31.029Z,15.72
2023-07-26T05:44:57.741Z,15.76
2023-07-26T05:47:25.213Z,15.86
2023-07-26T05:49:51.918Z,15.90
2023-07-26T05:52:20.340Z,15.90
2023-07-26T05:54:47.302Z,15.82
2023-07-26T05:57:14.025Z,15.80
2023-07-26T05:59:40.758Z,15.80
2023-07-26T06:02:07.400Z,15.70
2023-07-26T06:04:36.213Z,15.70
2023-07-26T06:07:05.034Z,15.80
2023-07-26T06:09:35.276Z,15.66
2023-07-26T06:12:02.537Z,15.60
2023-07-26T06:14:30.265Z,15.60
2023-07-26T06:16:57.240Z,15.50
2023-07-26T06:19:24.293Z,15.40
2023-07-26T06:21:56.833Z,15.40
2023-07-26T06:24:25.688Z,15.40
2023-07-26T06:26:55.761Z,15.40
2023-07-26T06:29:22.765Z,15.40
2023-07-26T06:31:49.953Z,15.50
2023-07-26T06:34:16.815Z,15.40
2023-07-26T06:36:43.500Z,15.30
2023-07-26T06:39:10.312Z,15.20
2023-07-26T06:41:36.954Z,15.20
2023-07-26T06:44:04.215Z,15.20
2023-07-26T06:46:30.942Z,15.20
2023-07-26T06:48:57.625Z,15.30
2023-07-26T06:51:24.241Z,15.30
2023-07-26T06:53:50.999Z,15.30
2023-07-26T06:56:21.768Z,15.30
2023-07-26T06:58:50.269Z,15.30
2023-07-26T07:01:18.635Z,15.30
2023-07-26T07:03:46.269Z,15.32
2023-07-26T07:06:15.516Z,15.40
2023-07-26T07:08:42.236Z,15.36
2023-07-26T07:11:08.854Z,15.30
2023-07-26T07:13:37.400Z,15.40
2023-07-26T07:16:05.395Z,15.40
2023-07-26T07:18:33.341Z,15.50
2023-07-26T07:21:02.179Z,15.50
2023-07-26T07:23:31.098Z,15.60
2023-07-26T07:25:58.037Z,15.70
2023-07-26T07:28:25.573Z,15.80
2023-07-26T07:30:52.727Z,15.90
2023-07-26T07:33:19.579Z,16.00
2023-07-26T07:35:46.432Z,16.10
2023-07-26T07:38:13.089Z,16.20
2023-07-26T07:40:39.780Z,16.40
2023-07-26T07:43:06.488Z,16.50
2023-07-26T07:45:33.193Z,16.62
2023-07-26T07:47:59.895Z,16.80
2023-07-26T07:50:26.635Z,16.90
2023-07-26T07:52:53.265Z,16.98
2023-07-26T07:55:20.018Z,17.00
2023-07-26T07:57:46.721Z,17.10
2023-07-26T08:00:14.015Z,17.00
2023-07-26T08:02:41.144Z,17.10
2023-07-26T08:05:08.153Z,17.10
2023-07-26T08:07:34.819Z,17.00
2023-07-26T08:10:01.692Z,16.90
2023-07-26T08:12:28.335Z,16.82
2023-07-26T08:14:54.991Z,16.80
2023-07-26T08:17:21.627Z,16.70
2023-07-26T08:19:48.323Z,16.74
2023-07-26T08:22:15.031Z,16.70
2023-07-26T08:24:42.212Z,16.70
2023-07-26T08:27:09.484Z,16.70
2023-07-26T08:29:36.193Z,16.70
2023-07-26T08:32:02.992Z,16.66
2023-07-26T08:34:29.638Z,16.70
2023-07-26T08:36:56.307Z,16.70
2023-07-26T08:39:34.320Z,16.70
2023-07-26T08:42:04.517Z,16.80
2023-07-26T08:44:34.259Z,16.80
2023-07-26T08:47:01.907Z,16.90
2023-07-26T08:49:30.054Z,17.00
2023-07-26T08:51:58.943Z,17.20
2023-07-26T08:54:25.663Z,17.32
2023-07-26T08:56:53.751Z,17.50
2023-07-26T08:59:20.371Z,17.70
2023-07-26T09:02:01.832Z,17.92
2023-07-26T09:04:32.745Z,18.54
2023-07-26T09:07:07.109Z,18.90
2023-07-26T09:09:36.016Z,19.06
2023-07-26T09:12:04.239Z,19.44
2023-07-26T09:14:33.293Z,20.24
2023-07-26T09:17:05.127Z,21.34
2023-07-26T09:19:40.199Z,22.18
2023-07-26T09:22:09.905Z,22.94
2023-07-26T09:24:41.235Z,23.98
2023-07-26T09:27:12.169Z,24.10
2023-07-26T09:29:42.281Z,24.30
2023-07-26T09:32:09.574Z,24.30
2023-07-26T09:34:36.501Z,24.20
2023-07-26T09:37:03.714Z,24.20
2023-07-26T09:39:33.209Z,24.20
2023-07-26T09:42:07.937Z,23.70
2023-07-26T09:44:37.031Z,23.50
2023-07-26T09:47:04.372Z,23.60
2023-07-26T09:49:32.214Z,23.88
2023-07-26T09:54:35.909Z,23.80
2023-07-26T09:57:07.551Z,23.40
2023-07-26T09:59:40.327Z,23.00
2023-07-26T10:02:12.303Z,22.68
2023-07-26T10:04:52.162Z,22.50
2023-07-26T10:07:19.581Z,22.60
2023-07-26T10:09:48.898Z,22.40
2023-07-26T10:12:16.444Z,22.20
2023-07-26T10:14:44.212Z,22.16
2023-07-26T10:17:14.409Z,22.10
2023-07-26T10:19:45.189Z,22.00
2023-07-26T10:22:12.681Z,21.88
2023-07-26T10:24:43.465Z,21.66
2023-07-26T10:27:11.348Z,21.40
2023-07-26T10:29:38.152Z,21.10
2023-07-26T10:32:08.287Z,20.90
2023-07-26T10:34:35.579Z,20.50
2023-07-26T10:37:17.443Z,20.20
2023-07-26T10:39:45.282Z,20.20
2023-07-26T10:42:30.688Z,20.30
2023-07-26T10:45:02.908Z,20.42
2023-07-26T10:47:30.903Z,20.58
2023-07-26T10:50:07.433Z,20.70
2023-07-26T10:52:38.950Z,20.80
2023-07-26T10:55:23.918Z,20.92
2023-07-26T10:57:50.862Z,21.00
2023-07-26T11:00:23.947Z,21.10
2023-07-26T11:03:01.215Z,21.20
2023-07-26T11:05:30.657Z,21.10
2023-07-26T11:08:09.185Z,21.10
2023-07-26T11:10:39.180Z,21.20
2023-07-26T11:13:19.501Z,21.20
2023-07-26T11:16:15.730Z,21.14
2023-07-26T11:18:44.248Z,21.20
2023-07-26T11:21:17.986Z,21.20
2023-07-26T11:23:45.328Z,21.10
2023-07-26T11:26:12.001Z,21.30
2023-07-26T11:28:39.380Z,21.30
2023-07-26T11:31:06.927Z,21.30
2023-07-26T11:33:44.899Z,21.20
2023-07-26T11:36:21.195Z,21.20
2023-07-26T11:38:49.205Z,21.22
2023-07-26T11:41:20.087Z,21.20
2023-07-26T11:43:48.514Z,21.00
2023-07-26T11:46:15.311Z,20.62
2023-07-26T11:48:45.825Z,20.08
2023-07-26T11:51:12.589Z,19.28
2023-07-26T11:53:46.160Z,18.68
2023-07-26T11:56:16.108Z,18.20
2023-07-26T11:58:43.655Z,17.90
2023-07-26T12:01:10.536Z,17.60
2023-07-26T12:03:37.891Z,17.38
2023-07-26T12:06:08.872Z,17.20
2023-07-26T12:08:39.443Z,17.30
2023-07-26T12:11:07.629Z,17.32
2023-07-26T12:13:37.793Z,17.48
2023-07-26T12:16:05.529Z,17.50
2023-07-26T12:18:33.458Z,17.60
2023-07-26T12:21:14.272Z,17.62
2023-07-26T12:24:04.481Z,17.70
2023-07-26T12:26:36.342Z,17.84
2023-07-26T12:29:06.587Z,18.04
2023-07-26T12:31:36.773Z,18.10
2023-07-26T12:34:12.894Z,18.20
2023-07-26T12:36:42.317Z,18.34
2023-07-26T12:39:10.987Z,18.40
2023-07-26T12:41:43.577Z,18.44
2023-07-26T12:44:11.596Z,18.40
2023-07-26T12:47:11.297Z,18.30
2023-07-26T12:49:28.294Z,18.30
2023-07-26T12:51:55.435Z,18.30
2023-07-26T12:54:25.004Z,18.30
2023-07-26T12:56:53.426Z,18.40
2023-07-26T12:59:20.187Z,18.50
2023-07-26T13:01:46.940Z,18.60
2023-07-26T13:04:13.746Z,18.60
2023-07-26T13:06:40.785Z,18.60
2023-07-26T13:09:08.807Z,18.70
2023-07-26T13:11:35.571Z,18.70
2023-07-26T13:14:02.742Z,18.70
2023-07-26T13:16:32.766Z,18.70
2023-07-26T13:19:04.954Z,18.62
2023-07-26T13:21:32.833Z,18.60
2023-07-26T13:24:00.160Z,18.70
2023-07-26T13:26:29.242Z,19.00
2023-07-26T13:28:55.869Z,19.30
2023-07-26T13:31:23.183Z,19.50
2023-07-26T13:33:51.820Z,19.60
2023-07-26T13:36:23.288Z,19.68
2023-07-26T13:38:50.305Z,19.70
2023-07-26T13:41:17.048Z,19.40
2023-07-26T13:43:43.593Z,19.30
2023-07-26T13:46:24.280Z,19.10
2023-07-26T13:48:56.973Z,19.10
2023-07-26T13:51:23.692Z,18.90
2023-07-26T13:53:50.278Z,18.80
2023-07-26T13:56:17.001Z,18.70
2023-07-26T13:58:44.031Z,18.70
2023-07-26T14:01:12.201Z,18.80
2023-07-26T14:03:38.882Z,18.80
2023-07-26T14:06:06.247Z,18.70
2023-07-26T14:08:32.891Z,18.70
2023-07-26T14:11:00.495Z,18.60
2023-07-26T14:13:27.312Z,18.48
2023-07-26T14:16:00.764Z,18.34
2023-07-26T14:18:34.512Z,18.32
2023-07-26T14:21:01.305Z,18.30
2023-07-26T14:23:31.995Z,18.28
2023-07-26T14:26:00.474Z,18.20
2023-07-26T14:28:28.268Z,18.10
2023-07-26T14:30:56.037Z,18.10
2023-07-26T14:33:22.884Z,18.20
2023-07-26T14:35:49.504Z,18.10
2023-07-26T14:38:16.148Z,18.10
2023-07-26T14:40:43.282Z,18.10
2023-07-26T14:43:09.902Z,18.02
2023-07-26T14:45:36.518Z,18.04
2023-07-26T14:48:03.589Z,18.10
2023-07-26T14:50:30.214Z,18.16
2023-07-26T14:52:56.828Z,18.22
2023-07-26T14:55:23.689Z,18.40
2023-07-26T14:57:50.379Z,18.60
2023-07-26T15:00:17.229Z,18.70
2023-07-26T15:02:44.067Z,18.74
2023-07-26T15:05:10.875Z,18.80
2023-07-26T15:07:38.749Z,18.80
2023-07-26T15:10:08.090Z,18.80
2023-07-26T15:12:35.085Z,18.90
2023-07-26T15:15:01.972Z,19.00
2023-07-26T15:17:28.615Z,19.00
2023-07-26T15:19:56.513Z,18.90
2023-07-26T15:22:24.538Z,18.90
2023-07-26T15:24:51.244Z,18.90
2023-07-26T15:27:18.687Z,19.00
2023-07-26T15:29:45.424Z,19.00
2023-07-26T15:32:15.312Z,18.92
2023-07-26T15:34:42.372Z,18.80
2023-07-26T15:37:09.110Z,18.70
2023-07-26T15:39:35.755Z,18.60
2023-07-26T15:49:36.415Z,18.64
2023-07-26T15:52:05.638Z,18.70
2023-07-26T15:54:32.788Z,18.70
2023-07-26T15:56:59.410Z,18.70
2023-07-26T15:59:26.148Z,18.70
2023-07-26T16:01:52.937Z,18.70
2023-07-26T16:19:54.043Z,18.30
2023-07-26T16:22:08.854Z,18.20
2023-07-26T16:24:35.931Z,18.10
2023-07-26T16:27:02.763Z,18.00
2023-07-26T16:29:29.498Z,17.90
2023-07-26T16:31:56.321Z,17.80
2023-07-26T16:34:22.991Z,17.90
2023-07-26T16:36:49.602Z,17.90
2023-07-26T16:39:16.330Z,17.90
2023-07-26T16:41:44.231Z,17.80
2023-07-26T16:44:11.264Z,17.72
2023-07-26T16:46:57.772Z,17.60
2023-07-26T16:49:24.481Z,17.50
2023-07-26T16:51:51.211Z,17.50
2023-07-26T16:54:17.876Z,17.44
2023-07-26T16:56:44.558Z,17.40
2023-07-26T16:59:11.272Z,17.30
2023-07-26T17:01:38.076Z,17.30
2023-07-26T17:04:05.171Z,17.20
2023-07-26T17:06:32.201Z,17.20
2023-07-26T17:08:59.373Z,17.20
2023-07-26T17:11:26.108Z,17.20
2023-07-26T17:13:52.717Z,17.20
2023-07-26T17:16:19.384Z,17.30
2023-07-26T17:18:47.970Z,17.30
2023-07-26T17:21:15.934Z,17.30
2023-07-26T17:23:43.510Z,17.30
2023-07-26T17:26:10.739Z,17.30
2023-07-26T17:28:37.723Z,17.32
2023-07-26T17:31:04.557Z,17.40
2023-07-26T17:33:32.539Z,17.30
2023-07-26T17:36:00.369Z,17.20
2023-07-26T17:38:27.703Z,17.20
2023-07-26T17:41:05.282Z,17.28
2023-07-26T17:43:33.884Z,17.30
2023-07-26T17:46:00.568Z,17.20
2023-07-26T17:48:28.349Z,17.20
2023-07-26T17:50:55.267Z,17.20
2023-07-26T17:53:23.191Z,17.20
2023-07-26T17:55:49.902Z,17.00
2023-07-26T17:58:16.536Z,17.00
2023-07-26T18:00:43.451Z,17.00
2023-07-26T18:03:10.457Z,17.00
2023-07-26T18:05:37.240Z,17.00
2023-07-26T18:08:06.065Z,17.00
2023-07-26T18:10:35.998Z,17.00
2023-07-26T18:13:03.865Z,17.00
2023-07-26T18:15:30.899Z,16.90
2023-07-26T18:17:57.715Z,16.80
2023-07-26T18:20:24.534Z,16.70
2023-07-26T18:22:51.212Z,16.66
2023-07-26T18:25:18.305Z,16.60
2023-07-26T18:27:44.947Z,16.54
2023-07-26T18:30:12.825Z,16.50
2023-07-26T18:32:39.678Z,16.40
2023-07-26T18:35:06.892Z,16.34
2023-07-26T18:37:33.561Z,16.30
2023-07-26T18:40:00.756Z,16.20
2023-07-26T18:42:27.424Z,16.20
2023-07-26T18:44:54.031Z,16.20
2023-07-26T18:47:20.693Z,16.20
2023-07-26T18:49:47.366Z,16.12
2023-07-26T18:52:14.067Z,16.02
2023-07-26T18:54:40.723Z,16.00
2023-07-26T18:57:07.585Z,16.00
2023-07-26T18:59:34.235Z,16.00
2023-07-26T19:02:00.916Z,16.00
2023-07-26T19:04:27.628Z,16.00
2023-07-26T19:06:54.403Z,15.90
2023-07-26T19:09:21.107Z,15.90
2023-07-26T19:11:50.337Z,15.90
2023-07-26T19:14:17.161Z,15.80
2023-07-26T19:16:44.050Z,15.80
2023-07-26T19:19:10.818Z,15.80
2023-07-26T19:21:37.573Z,15.80
2023-07-26T19:24:06.358Z,15.80
2023-07-26T19:26:33.144Z,15.80
2023-07-26T19:29:00.042Z,15.80
2023-07-26T19:31:26.653Z,15.80
2023-07-26T19:33:53.397Z,15.70
2023-07-26T19:36:20.131Z,15.70
2023-07-26T19:38:46.833Z,15.60
2023-07-26T19:41:17.087Z,15.60
2023-07-26T19:43:44.082Z,15.50
2023-07-26T19:46:16.228Z,15.50
2023-07-26T19:48:44.306Z,15.50
2023-07-26T19:51:11.070Z,15.40
2023-07-26T19:53:37.736Z,15.40
2023-07-26T19:56:04.969Z,15.40
2023-07-26T19:58:31.600Z,15.30
2023-07-26T20:00:59.018Z,15.30
2023-07-26T20:03:26.527Z,15.20
2023-07-26T20:05:54.187Z,15.20
2023-07-26T20:08:23.532Z,15.20
2023-07-26T20:10:51.416Z,15.20
2023-07-26T20:13:18.716Z,15.10
2023-07-26T20:15:46.493Z,15.10
2023-07-26T20:18:14.489Z,15.00
2023-07-26T20:20:45.338Z,14.90
2023-07-26T20:23:12.117Z,14.90
2023-07-26T20:25:40.386Z,14.90
2023-07-26T20:28:08.395Z,14.80
2023-07-26T20:30:37.094Z,14.80
2023-07-26T20:33:03.954Z,14.76
2023-07-26T20:35:30.685Z,14.70
2023-07-26T20:37:57.479Z,14.70
2023-07-26T20:40:24.321Z,14.60
2023-07-26T20:42:51.152Z,14.60
2023-07-26T20:45:17.780Z,14.56
2023-07-26T20:47:44.915Z,14.50
2023-07-26T20:50:11.750Z,14.50
2023-07-26T20:52:38.370Z,14.42
2023-07-26T20:55:05.883Z,14.40
2023-07-26T20:57:32.471Z,14.40
2023-07-26T20:59:59.249Z,14.40
2023-07-26T21:02:25.950Z,14.40
2023-07-26T21:04:52.635Z,14.40
2023-07-26T21:07:19.269Z,14.40
2023-07-26T21:09:45.845Z,14.40
2023-07-26T21:12:12.508Z,14.30
2023-07-26T21:14:39.271Z,14.30
2023-07-26T21:17:06.271Z,14.30
2023-07-26T21:19:33.564Z,14.30
2023-07-26T21:22:00.410Z,14.28
2023-07-26T21:24:27.119Z,14.22
2023-07-26T21:26:53.800Z,14.20
2023-07-26T21:29:20.345Z,14.20
2023-07-26T21:31:47.043Z,14.20
2023-07-26T21:34:13.840Z,14.14
2023-07-26T21:36:40.484Z,14.10
2023-07-26T21:39:08.258Z,14.10
2023-07-26T21:41:34.948Z,14.10
2023-07-26T21:44:01.565Z,14.10
2023-07-26T21:46:28.291Z,14.10
2023-07-26T21:48:54.919Z,14.12
2023-07-26T21:51:21.650Z,14.10
2023-07-26T21:53:48.317Z,14.10
2023-07-26T21:56:15.024Z,14.10
2023-07-26T21:58:41.752Z,14.10
2023-07-26T22:01:08.493Z,14.00
2023-07-26T22:03:35.265Z,14.00
2023-07-26T22:06:02.047Z,14.00
2023-07-26T22:08:28.784Z,13.90
2023-07-26T22:11:00.237Z,13.90
2023-07-26T22:13:27.460Z,13.90
2023-07-26T22:15:54.231Z,13.80
2023-07-26T22:18:21.288Z,13.80
2023-07-26T22:21:07.732Z,13.80
2023-07-26T22:23:34.738Z,13.70
2023-07-26T22:26:13.386Z,13.70
2023-07-26T22:28:42.545Z,13.70
2023-07-26T22:31:09.549Z,13.68
2023-07-26T22:33:36.371Z,13.60
2023-07-26T22:36:04.861Z,13.60
2023-07-26T22:38:31.553Z,13.60
2023-07-26T22:40:58.193Z,13.54
2023-07-26T22:43:24.804Z,13.50
2023-07-26T22:45:51.627Z,13.50
2023-07-26T22:48:18.374Z,13.50
2023-07-26T22:50:44.999Z,13.50
2023-07-26T22:53:11.609Z,13.50
2023-07-26T22:55:38.289Z,13.50
2023-07-26T22:58:06.500Z,13.50
2023-07-26T23:00:33.492Z,13.48
2023-07-26T23:03:00.246Z,13.42
2023-07-26T23:05:27.060Z,13.40
2023-07-26T23:07:53.646Z,13.40
2023-07-26T23:10:21.598Z,13.40
2023-07-26T23:12:48.361Z,13.40
2023-07-26T23:15:15.141Z,13.40
2023-07-26T23:17:41.850Z,13.40
2023-07-26T23:20:09.067Z,13.40
2023-07-26T23:22:35.693Z,13.40
2023-07-26T23:25:02.357Z,13.32
2023-07-26T23:27:29.081Z,13.30
2023-07-26T23:29:57.360Z,13.30
2023-07-26T23:32:24.281Z,13.30
2023-07-26T23:34:51.158Z,13.28
2023-07-26T23:37:17.692Z,13.20
2023-07-26T23:39:44.757Z,13.20
2023-07-26T23:42:11.457Z,13.20
2023-07-26T23:44:38.122Z,13.20
2023-07-26T23:47:05.258Z,13.18
2023-07-26T23:49:32.021Z,13.20
2023-07-26T23:51:58.626Z,13.18
2023-07-26T23:54:25.968Z,13.16
2023-07-26T23:56:52.593Z,13.10
2023-07-26T23:59:19.207Z,13.12
